createdAt,value
2016-06-24T00:00:33.393Z,68.62
2016-06-24T00:01:33.478Z,68.71
2016-06-24T00:02:33.546Z,68.49
2016-06-24T00:03:33.542Z,68.49
2016-06-24T00:04:33.650Z,68.97
2016-06-24T00:05:33.614Z,68.59
2016-06-24T00:06:33.722Z,68.49
2016-06-24T00:07:33.928Z,68.97
2016-06-24T00:08:33.748Z,68.68
2016-06-24T00:09:33.846Z,69.45
2016-06-24T00:10:33.831Z,68.97
2016-06-24T00:11:33.930Z,68.77
2016-06-24T00:12:33.969Z,69.64
2016-06-24T00:13:33.959Z,69.26
2016-06-24T00:14:34.005Z,69.16
2016-06-24T00:15:34.096Z,69.16
2016-06-24T00:16:34.128Z,69.26
2016-06-24T00:17:34.141Z,69.74
2016-06-24T00:18:34.181Z,69.55
2016-06-24T00:19:34.226Z,70
2016-06-24T00:20:34.379Z,69.84
2016-06-24T00:21:34.958Z,69.61
2016-06-24T00:22:34.410Z,70.03
2016-06-24T00:23:34.461Z,70.09
2016-06-24T00:24:34.487Z,69.9
2016-06-24T00:25:34.486Z,70.09
2016-06-24T00:26:34.537Z,70.28
2016-06-24T00:27:34.617Z,70.38
2016-06-24T00:28:34.618Z,70.57
2016-06-24T00:29:34.657Z,70.86
2016-06-24T00:30:34.702Z,70.96
2016-06-24T00:31:34.741Z,70.86
2016-06-24T00:32:34.788Z,70.76
2016-06-24T00:33:34.829Z,70.76
2016-06-24T00:34:34.936Z,70.86
2016-06-24T00:35:35.161Z,71.06
2016-06-24T00:36:34.960Z,71.15
2016-06-24T00:37:35.066Z,70.76
2016-06-24T00:38:35.086Z,70.73
2016-06-24T00:39:35.111Z,70.83
2016-06-24T00:40:35.130Z,71.02
2016-06-24T00:41:35.258Z,71.31
2016-06-24T00:42:35.441Z,71.5
2016-06-24T00:43:35.322Z,71.6
2016-06-24T00:44:35.326Z,71.41
2016-06-24T00:45:35.491Z,71.79
2016-06-24T00:46:35.425Z,71.89
2016-06-24T00:47:35.498Z,71.89
2016-06-24T00:48:35.627Z,72.08
2016-06-24T00:49:35.531Z,72.18
2016-06-24T00:50:35.593Z,71.98
2016-06-24T00:51:35.608Z,71.98
2016-06-24T00:52:35.650Z,72.18
2016-06-24T00:53:35.713Z,71.98
2016-06-24T00:54:35.785Z,71.89
2016-06-24T00:55:35.777Z,71.98
2016-06-24T00:56:35.825Z,72.37
2016-06-24T00:57:35.909Z,72.56
2016-06-24T00:58:35.918Z,72.33
2016-06-24T00:59:36.018Z,72.81
2016-06-24T01:00:36.027Z,72.81
2016-06-24T01:01:36.145Z,72.91
2016-06-24T01:02:36.114Z,73.01
2016-06-24T01:03:36.162Z,72.91
2016-06-24T01:04:36.240Z,73.01
2016-06-24T01:05:36.238Z,73.49
2016-06-24T01:06:36.325Z,73.58
2016-06-24T01:07:36.355Z,73.46
2016-06-24T01:08:36.344Z,73.39
2016-06-24T01:09:36.431Z,73.65
2016-06-24T01:10:36.501Z,73.55
2016-06-24T01:11:36.481Z,73.97
2016-06-24T01:12:36.828Z,73.55
2016-06-24T01:13:36.610Z,73.55
2016-06-24T01:14:36.645Z,74.13
2016-06-24T01:15:36.670Z,73.94
2016-06-24T01:16:36.769Z,73.84
2016-06-24T01:17:36.740Z,73.74
2016-06-24T01:18:36.830Z,73.94
2016-06-24T01:19:36.860Z,73.65
2016-06-24T01:20:36.873Z,73.88
2016-06-24T01:21:37.626Z,73.65
2016-06-24T01:22:36.937Z,73.65
2016-06-24T01:23:36.994Z,73.74
2016-06-24T01:24:37.078Z,73.65
2016-06-24T01:25:37.121Z,74.41
2016-06-24T01:26:37.162Z,74.32
2016-06-24T01:27:37.224Z,74.32
2016-06-24T01:28:37.886Z,74.32
2016-06-24T01:29:37.291Z,74.61
2016-06-24T01:30:37.357Z,74.22
2016-06-24T01:31:37.327Z,74.32
2016-06-24T01:32:37.438Z,74.32
2016-06-24T01:33:37.407Z,74.41
2016-06-24T01:34:37.541Z,74.41
2016-06-24T01:35:37.555Z,74.76
2016-06-24T01:36:37.542Z,74.67
2016-06-24T01:37:37.638Z,74.67
2016-06-24T01:38:37.686Z,74.76
2016-06-24T01:39:37.672Z,74.76
2016-06-24T01:40:37.710Z,74.86
2016-06-24T01:41:37.810Z,75.15
2016-06-24T01:42:37.801Z,74.67
2016-06-24T01:43:37.843Z,74.48
2016-06-24T01:44:37.951Z,75.54
2016-06-24T01:45:37.941Z,74.96
2016-06-24T01:46:37.965Z,74.96
2016-06-24T01:47:38.058Z,74.48
2016-06-24T01:48:38.049Z,75.05
2016-06-24T01:49:38.151Z,74.86
2016-06-24T01:50:38.173Z,75.15
2016-06-24T01:51:38.181Z,75.54
2016-06-24T01:52:38.239Z,75.54
2016-06-24T01:53:38.261Z,74.76
2016-06-24T01:54:38.309Z,75.44
2016-06-24T01:55:38.363Z,75.05
2016-06-24T01:56:38.434Z,75.24
2016-06-24T01:57:38.486Z,75.15
2016-06-24T01:58:38.471Z,75.05
2016-06-24T01:59:38.613Z,75.34
2016-06-24T02:00:38.626Z,75.73
2016-06-24T02:01:38.630Z,75.63
2016-06-24T02:02:38.655Z,75.69
2016-06-24T02:03:38.747Z,75.63
2016-06-24T02:04:38.740Z,75.63
2016-06-24T02:05:38.830Z,75.44
2016-06-24T02:06:39.077Z,75.73
2016-06-24T02:07:38.882Z,75.73
2016-06-24T02:08:38.960Z,75.92
2016-06-24T02:09:38.947Z,75.79
2016-06-24T02:10:39.038Z,75.69
2016-06-24T02:11:39.091Z,75.73
2016-06-24T02:12:39.146Z,76.01
2016-06-24T02:13:39.114Z,75.92
2016-06-24T02:14:39.255Z,75.82
2016-06-24T02:15:39.195Z,75.73
2016-06-24T02:16:39.290Z,75.73
2016-06-24T02:17:39.311Z,75.82
2016-06-24T02:18:39.323Z,76.01
2016-06-24T02:19:39.425Z,75.73
2016-06-24T02:20:39.415Z,76.01
2016-06-24T02:21:39.476Z,75.82
2016-06-24T02:22:39.486Z,75.73
2016-06-24T02:23:39.580Z,75.92
2016-06-24T02:24:39.576Z,75.82
2016-06-24T02:25:39.701Z,75.92
2016-06-24T02:26:39.678Z,76.31
2016-06-24T02:27:39.761Z,75.92
2016-06-24T02:28:39.807Z,76.07
2016-06-24T02:29:39.791Z,76.01
2016-06-24T02:30:39.903Z,76.4
2016-06-24T02:31:39.897Z,76.4
2016-06-24T02:32:40.022Z,76.21
2016-06-24T02:33:39.962Z,76.21
2016-06-24T02:34:39.997Z,76.78
2016-06-24T02:35:40.096Z,76.88
2016-06-24T02:36:40.087Z,76.78
2016-06-24T02:37:40.123Z,77.08
2016-06-24T02:38:40.178Z,77.36
2016-06-24T02:39:40.215Z,77.26
2016-06-24T02:40:40.308Z,77.65
2016-06-24T02:41:40.298Z,77.56
2016-06-24T02:42:40.342Z,77.46
2016-06-24T02:43:40.443Z,77.84
2016-06-24T02:44:40.426Z,77.71
2016-06-24T02:45:40.524Z,77.46
2016-06-24T02:46:40.734Z,77.56
2016-06-24T02:47:40.558Z,77.46
2016-06-24T02:48:40.652Z,77.56
2016-06-24T02:49:40.659Z,77.26
2016-06-24T02:50:40.740Z,77.33
2016-06-24T02:51:40.767Z,76.56
2016-06-24T02:52:40.820Z,76.84
2016-06-24T02:53:40.857Z,76.84
2016-06-24T02:54:40.843Z,76.94
2016-06-24T02:55:40.895Z,77.04
2016-06-24T02:56:40.992Z,77.13
2016-06-24T02:57:40.972Z,77.23
2016-06-24T02:58:41.096Z,76.65
2016-06-24T02:59:41.066Z,76.65
2016-06-24T03:00:41.166Z,76.65
2016-06-24T03:01:41.148Z,76.65
2016-06-24T03:02:41.263Z,76.36
2016-06-24T03:03:41.226Z,76.46
2016-06-24T03:04:41.271Z,76.46
2016-06-24T03:05:41.392Z,76.56
2016-06-24T03:06:41.430Z,76.75
2016-06-24T03:07:41.390Z,76.65
2016-06-24T03:08:41.492Z,76.84
2016-06-24T03:09:41.559Z,76.23
2016-06-24T03:10:41.577Z,76.17
2016-06-24T03:11:41.563Z,76.32
2016-06-24T03:12:41.661Z,76.14
2016-06-24T03:13:41.722Z,76.32
2016-06-24T03:14:41.689Z,76.52
2016-06-24T03:15:41.737Z,76.61
2016-06-24T03:16:41.833Z,76.23
2016-06-24T03:17:41.841Z,76.52
2016-06-24T03:18:41.919Z,76.23
2016-06-24T03:19:41.966Z,76.52
2016-06-24T03:20:41.951Z,76.42
2016-06-24T03:21:42.042Z,76.81
2016-06-24T03:22:42.091Z,76.81
2016-06-24T03:23:42.202Z,76.71
2016-06-24T03:24:42.145Z,76.81
2016-06-24T03:25:42.218Z,76.32
2016-06-24T03:26:42.206Z,76.52
2016-06-24T03:27:42.243Z,76.9
2016-06-24T03:28:42.352Z,76.71
2016-06-24T03:29:42.394Z,76.42
2016-06-24T03:30:42.367Z,76.9
2016-06-24T03:31:42.461Z,77.19
2016-06-24T03:32:42.548Z,77.19
2016-06-24T03:33:42.526Z,76.52
2016-06-24T03:34:42.606Z,77
2016-06-24T03:35:42.577Z,76.71
2016-06-24T03:36:42.688Z,76.71
2016-06-24T03:37:42.735Z,76.52
2016-06-24T03:38:42.708Z,76.61
2016-06-24T03:39:42.752Z,76.81
2016-06-24T03:40:42.793Z,77.09
2016-06-24T03:41:42.884Z,77
2016-06-24T03:42:42.932Z,77
2016-06-24T03:43:42.914Z,77.09
2016-06-24T03:44:42.962Z,77.09
2016-06-24T03:45:43.058Z,76.71
2016-06-24T03:46:43.219Z,76.52
2016-06-24T03:47:43.086Z,77.29
2016-06-24T03:48:43.169Z,77.19
2016-06-24T03:49:43.267Z,77.29
2016-06-24T03:50:43.262Z,77.38
2016-06-24T03:51:43.316Z,77.58
2016-06-24T03:52:43.350Z,77.76
2016-06-24T03:53:43.420Z,77.96
2016-06-24T03:54:43.442Z,77.76
2016-06-24T03:55:43.466Z,77.48
2016-06-24T03:56:43.564Z,77.67
2016-06-24T03:57:43.559Z,78.06
2016-06-24T03:58:43.611Z,77.86
2016-06-24T03:59:43.590Z,78.15
2016-06-24T04:00:43.757Z,78.15
2016-06-24T04:01:43.730Z,78.02
2016-06-24T04:02:43.726Z,78.53
2016-06-24T04:03:43.774Z,77.76
2016-06-24T04:04:43.854Z,77.86
2016-06-24T04:05:43.929Z,78.44
2016-06-24T04:06:43.945Z,77.76
2016-06-24T04:07:43.983Z,77.76
2016-06-24T04:08:43.999Z,78.25
2016-06-24T04:09:44.072Z,77.96
2016-06-24T04:10:44.054Z,78.25
2016-06-24T04:11:44.111Z,77.96
2016-06-24T04:12:44.217Z,77.96
2016-06-24T04:13:44.282Z,78.34
2016-06-24T04:14:44.285Z,77.86
2016-06-24T04:15:44.323Z,77.81
2016-06-24T04:16:44.330Z,78.09
2016-06-24T04:17:44.358Z,78.28
2016-06-24T04:18:44.453Z,77.71
2016-06-24T04:19:44.494Z,78.19
2016-06-24T04:20:44.481Z,77.71
2016-06-24T04:21:44.590Z,77.61
2016-06-24T04:22:44.559Z,77.42
2016-06-24T04:23:44.670Z,77.71
2016-06-24T04:24:44.654Z,77.71
2016-06-24T04:25:44.745Z,77.81
2016-06-24T04:26:44.743Z,77.9
2016-06-24T04:27:44.763Z,78.19
2016-06-24T04:28:44.893Z,77.42
2016-06-24T04:29:44.941Z,77.81
2016-06-24T04:30:44.948Z,78
2016-06-24T04:31:44.999Z,77.42
2016-06-24T04:32:45.049Z,77.51
2016-06-24T04:33:45.056Z,77.46
2016-06-24T04:34:45.114Z,77.75
2016-06-24T04:35:45.109Z,77.65
2016-06-24T04:36:45.205Z,77.17
2016-06-24T04:37:45.279Z,77.08
2016-06-24T04:38:45.237Z,77.46
2016-06-24T04:39:45.347Z,76.69
2016-06-24T04:40:45.320Z,76.88
2016-06-24T04:41:45.435Z,76.98
2016-06-24T04:42:45.433Z,76.82
2016-06-24T04:43:45.447Z,76.98
2016-06-24T04:44:45.489Z,76.78
2016-06-24T04:45:45.591Z,76.63
2016-06-24T04:46:45.571Z,77.01
2016-06-24T04:47:45.675Z,76.63
2016-06-24T04:48:45.658Z,76.73
2016-06-24T04:49:45.753Z,76.82
2016-06-24T04:50:45.799Z,76.34
2016-06-24T04:51:45.788Z,76.44
2016-06-24T04:52:45.881Z,76.53
2016-06-24T04:53:45.893Z,76.34
2016-06-24T04:54:45.913Z,76.63
2016-06-24T04:55:46.019Z,76.34
2016-06-24T04:56:46.045Z,76.09
2016-06-24T04:57:46.062Z,75.9
2016-06-24T04:58:46.094Z,76.18
2016-06-24T04:59:46.132Z,75.9
2016-06-24T05:00:46.256Z,76.28
2016-06-24T05:01:46.207Z,75.99
2016-06-24T05:02:46.316Z,76.09
2016-06-24T05:03:46.295Z,75.8
2016-06-24T05:04:46.342Z,76.28
2016-06-24T05:05:46.437Z,75.61
2016-06-24T05:06:46.420Z,75.99
2016-06-24T05:07:46.528Z,75.71
2016-06-24T05:08:46.564Z,75.51
2016-06-24T05:09:46.551Z,75.8
2016-06-24T05:10:46.644Z,75.36
2016-06-24T05:11:46.722Z,75.26
2016-06-24T05:12:46.784Z,75.07
2016-06-24T05:13:46.720Z,75.65
2016-06-24T05:14:46.765Z,75.42
2016-06-24T05:15:46.834Z,75.55
2016-06-24T05:16:46.918Z,75.07
2016-06-24T05:17:46.946Z,75.16
2016-06-24T05:18:46.939Z,75.16
2016-06-24T05:19:46.975Z,75.55
2016-06-24T05:20:47.087Z,74.78
2016-06-24T05:21:47.061Z,75.26
2016-06-24T05:22:47.161Z,74.58
2016-06-24T05:23:47.149Z,74.78
2016-06-24T05:24:47.242Z,74.68
2016-06-24T05:25:47.294Z,74.78
2016-06-24T05:26:47.282Z,74.78
2016-06-24T05:27:47.413Z,74.78
2016-06-24T05:28:47.368Z,74.58
2016-06-24T05:29:47.414Z,74.58
2016-06-24T05:30:47.454Z,74.88
2016-06-24T05:31:47.498Z,74.97
2016-06-24T05:32:47.530Z,74.58
2016-06-24T05:33:47.645Z,74.49
2016-06-24T05:34:48.223Z,74.4
2016-06-24T05:35:47.684Z,74.33
2016-06-24T05:36:48.464Z,74.43
2016-06-24T05:37:47.748Z,74.24
2016-06-24T05:38:47.795Z,74.43
2016-06-24T05:39:47.853Z,74.24
2016-06-24T05:40:47.879Z,74.33
2016-06-24T05:41:47.928Z,74.62
2016-06-24T05:42:47.975Z,74.24
2016-06-24T05:43:48.851Z,74.43
2016-06-24T05:44:48.086Z,74.62
2016-06-24T05:45:48.096Z,74.62
2016-06-24T05:46:48.409Z,74.27
2016-06-24T05:47:48.194Z,74.57
2016-06-24T05:48:48.283Z,73.89
2016-06-24T05:49:48.328Z,73.69
2016-06-24T05:50:48.323Z,73.69
2016-06-24T05:51:48.406Z,72.96
2016-06-24T05:52:48.454Z,72.09
2016-06-24T05:53:49.180Z,71.74
2016-06-24T05:54:48.493Z,72.13
2016-06-24T05:55:48.542Z,71.06
2016-06-24T05:56:48.598Z,70.42
2016-06-24T05:57:48.731Z,70.81
2016-06-24T05:58:48.670Z,70.46
2016-06-24T05:59:48.706Z,69.78
2016-06-24T06:00:48.814Z,69.78
2016-06-24T06:01:48.859Z,69.4
2016-06-24T06:02:48.846Z,69.59
2016-06-24T06:03:48.905Z,68.95
2016-06-24T06:04:49.175Z,68.95
2016-06-24T06:05:49.250Z,69.33
2016-06-24T06:06:49.270Z,69.14
2016-06-24T06:07:49.119Z,68.66
2016-06-24T06:08:49.911Z,68.82
2016-06-24T06:09:49.758Z,69.04
2016-06-24T06:10:49.248Z,68.85
2016-06-24T06:11:49.231Z,69.24
2016-06-24T06:12:49.642Z,68.85
2016-06-24T06:13:49.331Z,68.17
2016-06-24T06:14:49.363Z,68.56
2016-06-24T06:15:49.459Z,68.08
2016-06-24T06:16:49.493Z,68.56
2016-06-24T06:17:49.528Z,68.46
2016-06-24T06:18:49.544Z,68.75
2016-06-24T06:19:49.647Z,68.49
2016-06-24T06:20:49.634Z,68.49
2016-06-24T06:21:49.681Z,68.27
2016-06-24T06:22:49.858Z,68.56
2016-06-24T06:23:49.762Z,68.59
2016-06-24T06:24:50.110Z,68.59
2016-06-24T06:25:49.930Z,68.21
2016-06-24T06:26:49.921Z,68.21
2016-06-24T06:27:49.999Z,68.21
2016-06-24T06:28:50.038Z,68.21
2016-06-24T06:29:50.068Z,68.21
2016-06-24T06:30:50.079Z,68.11
2016-06-24T06:31:50.126Z,68.3
2016-06-24T06:32:50.173Z,68.11
2016-06-24T06:33:50.332Z,67.82
2016-06-24T06:34:50.524Z,68.01
2016-06-24T06:35:50.346Z,68.01
2016-06-24T06:36:50.410Z,67.72
2016-06-24T06:37:50.490Z,67.63
2016-06-24T06:38:50.435Z,67.46
2016-06-24T06:39:50.538Z,67.53
2016-06-24T06:40:50.935Z,67.56
2016-06-24T06:41:50.563Z,67.66
2016-06-24T06:42:50.710Z,67.53
2016-06-24T06:43:50.808Z,67.56
2016-06-24T06:44:50.794Z,66.78
2016-06-24T06:45:50.734Z,66.78
2016-06-24T06:46:50.875Z,66.88
2016-06-24T06:47:50.879Z,67.37
2016-06-24T06:48:50.917Z,66.98
2016-06-24T06:49:50.994Z,67.27
2016-06-24T06:50:51.034Z,66.88
2016-06-24T06:51:51.065Z,66.88
2016-06-24T06:52:51.068Z,66.6
2016-06-24T06:53:51.327Z,67.08
2016-06-24T06:54:51.167Z,66.82
2016-06-24T06:55:51.318Z,66.63
2016-06-24T06:56:51.291Z,66.53
2016-06-24T06:57:51.297Z,66.82
2016-06-24T06:58:51.384Z,66.92
2016-06-24T06:59:51.489Z,66.92
2016-06-24T07:00:51.498Z,66.14
2016-06-24T07:01:51.508Z,66.53
2016-06-24T07:02:51.619Z,66.34
2016-06-24T07:03:51.567Z,66.08
2016-06-24T07:04:51.598Z,66.14
2016-06-24T07:05:51.694Z,65.98
2016-06-24T07:06:51.734Z,66.17
2016-06-24T07:07:51.739Z,66.17
2016-06-24T07:08:51.824Z,66.27
2016-06-24T07:09:51.827Z,66.17
2016-06-24T07:10:51.879Z,65.98
2016-06-24T07:11:51.966Z,65.79
2016-06-24T07:12:51.967Z,65.69
2016-06-24T07:13:52.110Z,65.69
2016-06-24T07:14:52.080Z,65.69
2016-06-24T07:15:52.078Z,65.69
2016-06-24T07:16:52.131Z,65.98
2016-06-24T07:17:52.205Z,65.4
2016-06-24T07:18:52.335Z,64.82
2016-06-24T07:19:52.327Z,65.11
2016-06-24T07:20:52.423Z,64.82
2016-06-24T07:21:52.396Z,64.72
2016-06-24T07:22:52.477Z,64.72
2016-06-24T07:23:52.495Z,65.14
2016-06-24T07:24:52.491Z,65.14
2016-06-24T07:25:52.534Z,64.37
2016-06-24T07:26:52.633Z,64.72
2016-06-24T07:27:52.616Z,65.01
2016-06-24T07:28:52.734Z,64.75
2016-06-24T07:29:53.200Z,64.53
2016-06-24T07:30:52.760Z,64.72
2016-06-24T07:31:53.155Z,64.72
2016-06-24T07:32:52.898Z,64.43
2016-06-24T07:33:52.954Z,63.85
2016-06-24T07:34:52.981Z,64.14
2016-06-24T07:35:52.998Z,64.47
2016-06-24T07:36:53.049Z,63.88
2016-06-24T07:37:53.087Z,63.69
2016-06-24T07:38:53.131Z,63.78
2016-06-24T07:39:53.223Z,63.2
2016-06-24T07:40:53.225Z,63.2
2016-06-24T07:41:53.375Z,63.78
2016-06-24T07:42:53.378Z,63.69
2016-06-24T07:43:53.419Z,63.88
2016-06-24T07:44:53.433Z,63.98
2016-06-24T07:45:53.498Z,64.07
2016-06-24T07:46:53.538Z,63.69
2016-06-24T07:47:53.570Z,63.3
2016-06-24T07:48:53.633Z,63.59
2016-06-24T07:49:53.622Z,63.62
2016-06-24T07:50:53.708Z,62.95
2016-06-24T07:51:54.052Z,62.72
2016-06-24T07:52:53.764Z,62.95
2016-06-24T07:53:53.862Z,63.13
2016-06-24T07:54:53.858Z,62.95
2016-06-24T07:55:53.955Z,63.33
2016-06-24T07:56:54.010Z,62.46
2016-06-24T07:57:53.993Z,62.46
2016-06-24T07:58:54.092Z,62.26
2016-06-24T07:59:54.115Z,61.98
2016-06-24T08:00:54.184Z,61.98
2016-06-24T08:01:54.385Z,62.19
2016-06-24T08:02:54.279Z,62.01
2016-06-24T08:03:54.271Z,62.39
2016-06-24T08:04:54.314Z,61.52
2016-06-24T08:05:54.372Z,62.29
2016-06-24T08:06:54.497Z,61.52
2016-06-24T08:07:54.447Z,61.52
2016-06-24T08:08:54.493Z,61.81
2016-06-24T08:09:54.535Z,61.81
2016-06-24T08:10:54.770Z,61.22
2016-06-24T08:11:54.688Z,61.13
2016-06-24T08:12:54.699Z,60.94
2016-06-24T08:13:54.806Z,60.84
2016-06-24T08:14:54.842Z,60.74
2016-06-24T08:15:54.889Z,60.38
2016-06-24T08:16:55.067Z,59.8
2016-06-24T08:17:55.046Z,59.9
2016-06-24T08:18:55.006Z,59.61
2016-06-24T08:19:55.009Z,59.61
2016-06-24T08:20:55.094Z,58.25
2016-06-24T08:21:55.151Z,58.05
2016-06-24T08:22:55.388Z,57.18
2016-06-24T08:23:55.177Z,56.89
2016-06-24T08:24:55.334Z,57.37
2016-06-24T08:25:55.880Z,56.7
2016-06-24T08:26:55.382Z,55.55
2016-06-24T08:27:55.379Z,55.07
2016-06-24T08:28:55.471Z,55.65
2016-06-24T08:29:55.518Z,55.65
2016-06-24T08:30:55.605Z,55.65
2016-06-24T08:31:55.618Z,55.55
2016-06-24T08:32:55.723Z,55.55
2016-06-24T08:33:55.728Z,54.97
2016-06-24T08:34:55.737Z,55.46
2016-06-24T08:35:55.742Z,55.46
2016-06-24T08:36:55.779Z,55.75
2016-06-24T08:37:55.834Z,55.68
2016-06-24T08:38:55.874Z,55.94
2016-06-24T08:39:55.923Z,55.85
2016-06-24T08:40:55.970Z,55.75
2016-06-24T08:41:56.091Z,55.94
2016-06-24T08:42:56.096Z,55.36
2016-06-24T08:43:56.157Z,55.46
2016-06-24T08:44:56.151Z,55.75
2016-06-24T08:45:56.201Z,55.27
2016-06-24T08:46:56.242Z,55.17
2016-06-24T08:47:56.302Z,55.65
2016-06-24T08:48:56.389Z,55.36
2016-06-24T08:49:56.448Z,55.65
2016-06-24T08:50:56.444Z,55.75
2016-06-24T08:51:56.529Z,55.75
2016-06-24T08:52:56.570Z,55.75
2016-06-24T08:53:56.572Z,55.27
2016-06-24T08:54:56.932Z,55.27
2016-06-24T08:55:56.747Z,54.8
2016-06-24T08:56:56.753Z,55
2016-06-24T08:57:56.851Z,54.32
2016-06-24T08:58:56.896Z,54.03
2016-06-24T08:59:56.908Z,53.35
2016-06-24T09:00:57.020Z,52.89
2016-06-24T09:01:56.939Z,52.79
2016-06-24T09:02:56.985Z,52.98
2016-06-24T09:03:57.040Z,52.5
2016-06-24T09:04:57.116Z,52.4
2016-06-24T09:05:57.135Z,52.4
2016-06-24T09:06:57.342Z,52.5
2016-06-24T09:07:57.252Z,51.62
2016-06-24T09:08:57.335Z,52.21
2016-06-24T09:09:57.379Z,52.31
2016-06-24T09:10:57.418Z,52.21
2016-06-24T09:11:57.402Z,52.11
2016-06-24T09:12:57.471Z,52.89
2016-06-24T09:13:57.525Z,52.69
2016-06-24T09:14:57.603Z,53.06
2016-06-24T09:15:57.602Z,52.67
2016-06-24T09:16:57.639Z,52.86
2016-06-24T09:17:57.707Z,52.89
2016-06-24T09:18:57.765Z,52.98
2016-06-24T09:19:57.789Z,52.69
2016-06-24T09:20:57.898Z,52.69
2016-06-24T09:21:57.879Z,52.69
2016-06-24T09:22:58.010Z,53.18
2016-06-24T09:23:58.044Z,52.69
2016-06-24T09:24:58.082Z,52.59
2016-06-24T09:25:58.304Z,52.79
2016-06-24T09:26:58.251Z,53.18
2016-06-24T09:27:58.366Z,52.5
2016-06-24T09:28:58.431Z,52.72
2016-06-24T09:29:58.357Z,53.08
2016-06-24T09:30:58.482Z,53.79
2016-06-24T09:31:58.414Z,53.69
2016-06-24T09:32:58.471Z,53.69
2016-06-24T09:33:58.451Z,53.99
2016-06-24T09:34:58.533Z,53.89
2016-06-24T09:35:58.543Z,53.89
2016-06-24T09:36:58.673Z,54.47
2016-06-24T09:37:58.674Z,53.89
2016-06-24T09:38:58.801Z,53.01
2016-06-24T09:39:58.729Z,52.23
2016-06-24T09:40:58.916Z,51.77
2016-06-24T09:41:58.825Z,52.06
2016-06-24T09:42:58.918Z,51.48
2016-06-24T09:43:58.913Z,51.58
2016-06-24T09:44:58.989Z,51.97
2016-06-24T09:45:59.015Z,52.16
2016-06-24T09:46:59.111Z,52.06
2016-06-24T09:47:59.109Z,52.36
2016-06-24T09:48:59.150Z,51.67
2016-06-24T09:49:59.397Z,51.87
2016-06-24T09:50:59.248Z,51.19
2016-06-24T09:51:59.347Z,50.6
2016-06-24T09:52:59.451Z,50.21
2016-06-24T09:53:59.505Z,50.63
2016-06-24T09:54:59.487Z,49.76
2016-06-24T09:55:59.541Z,49.27
2016-06-24T09:56:59.546Z,49.17
2016-06-24T09:57:59.587Z,48.88
2016-06-24T09:58:59.616Z,49.27
2016-06-24T09:59:59.677Z,48.32
2016-06-24T10:00:59.783Z,48.12
2016-06-24T10:01:59.786Z,47.44
2016-06-24T10:02:59.930Z,47.34
2016-06-24T10:04:00.046Z,48.02
2016-06-24T10:04:59.941Z,48.12
2016-06-24T10:06:00.015Z,47.63
2016-06-24T10:07:00.059Z,47.34
2016-06-24T10:08:00.061Z,47.15
2016-06-24T10:09:00.140Z,47.44
2016-06-24T10:10:00.262Z,46.76
2016-06-24T10:11:00.254Z,45.29
2016-06-24T10:12:00.728Z,44.81
2016-06-24T10:13:00.335Z,44.52
2016-06-24T10:14:00.342Z,44.81
2016-06-24T10:15:00.443Z,44.71
2016-06-24T10:16:00.482Z,45.1
2016-06-24T10:17:00.537Z,44.81
2016-06-24T10:18:00.524Z,45.22
2016-06-24T10:19:00.647Z,44.93
2016-06-24T10:20:00.673Z,45.03
2016-06-24T10:21:00.680Z,45.22
2016-06-24T10:22:00.762Z,45.12
2016-06-24T10:23:00.851Z,45.12
2016-06-24T10:24:00.814Z,44.83
2016-06-24T10:25:00.919Z,44.66
2016-06-24T10:26:00.960Z,44.95
2016-06-24T10:27:01.029Z,45.05
2016-06-24T10:28:01.043Z,44.85
2016-06-24T10:29:01.048Z,44.56
2016-06-24T10:30:01.142Z,44.07
2016-06-24T10:31:01.226Z,43.8
2016-06-24T10:32:01.202Z,44.29
2016-06-24T10:33:01.293Z,43.8
2016-06-24T10:34:01.348Z,43.99
2016-06-24T10:35:01.366Z,43.63
2016-06-24T10:36:01.463Z,42.75
2016-06-24T10:37:01.436Z,43.04
2016-06-24T10:38:01.534Z,43.14
2016-06-24T10:39:01.531Z,42.75
2016-06-24T10:40:01.637Z,42.48
2016-06-24T10:41:01.627Z,42.68
2016-06-24T10:42:01.683Z,42.48
2016-06-24T10:43:01.782Z,42.38
2016-06-24T10:44:01.835Z,41.41
2016-06-24T10:45:01.926Z,41.41
2016-06-24T10:46:01.950Z,40.64
2016-06-24T10:47:01.925Z,39.08
2016-06-24T10:48:02.033Z,39.28
2016-06-24T10:49:02.036Z,40.35
2016-06-24T10:50:02.161Z,39.67
2016-06-24T10:51:02.249Z,39.47
2016-06-24T10:52:02.201Z,39.69
2016-06-24T10:53:02.254Z,39.69
2016-06-24T10:54:02.306Z,39.29
2016-06-24T10:55:02.418Z,39.7
2016-06-24T10:56:02.411Z,40.48
2016-06-24T10:57:02.483Z,40.21
2016-06-24T10:58:02.554Z,39.62
2016-06-24T10:59:02.567Z,40.53
2016-06-24T11:00:02.631Z,39.56
2016-06-24T11:01:02.772Z,38.88
2016-06-24T11:02:02.751Z,38.51
2016-06-24T11:03:02.864Z,37.94
2016-06-24T11:04:02.924Z,37.07
2016-06-24T11:05:02.967Z,36.4
2016-06-24T11:06:03.027Z,35.46
2016-06-24T11:07:03.098Z,34.01
2016-06-24T11:08:03.184Z,32.87
2016-06-24T11:09:03.180Z,31.52
2016-06-24T11:10:03.219Z,30.29
2016-06-24T11:11:03.286Z,29.82
2016-06-24T11:12:03.388Z,26.7
2016-06-24T11:13:03.409Z,26.53
2016-06-24T11:14:03.524Z,25.27
2016-06-24T11:15:03.519Z,24.31
2016-06-24T11:16:03.591Z,23.14
2016-06-24T11:17:03.706Z,21.56
2016-06-24T11:18:03.754Z,20.98
2016-06-24T11:19:03.829Z,20.9
2016-06-24T11:20:03.891Z,19.93
2016-06-24T11:21:03.944Z,18.85
2016-06-24T11:22:04.010Z,18.56
2016-06-24T11:23:04.035Z,17.09
2016-06-24T11:24:04.125Z,16.6
2016-06-24T11:25:04.178Z,15.8
2016-06-24T11:26:04.209Z,15.1
2016-06-24T11:27:04.324Z,14.7
2016-06-24T11:28:04.325Z,13.92
2016-06-24T11:29:04.452Z,14.22
2016-06-24T11:30:04.442Z,13.92
2016-06-24T11:31:04.567Z,13.23
2016-06-24T11:32:04.583Z,13.04
2016-06-24T11:33:04.674Z,11.75
2016-06-24T11:34:04.783Z,11.24
2016-06-24T11:35:04.766Z,11.94
2016-06-24T11:36:04.834Z,11.15
2016-06-24T11:37:04.901Z,10.94
2016-06-24T11:38:05.050Z,10.64
2016-06-24T11:39:05.037Z,10.74
2016-06-24T11:40:05.197Z,10.53
2016-06-24T11:41:05.269Z,11.04
2016-06-24T11:42:05.332Z,10.65
2016-06-24T11:43:05.383Z,10.05
2016-06-24T11:44:05.848Z,9.25
2016-06-24T11:45:05.704Z,9.05
2016-06-24T11:46:05.630Z,8.84
2016-06-24T11:47:05.912Z,9.15
2016-06-24T11:48:05.695Z,9.45
2016-06-24T11:49:05.787Z,9.56
2016-06-24T11:50:05.749Z,9.06
2016-06-24T11:51:05.888Z,8.06
2016-06-24T11:52:05.945Z,7.06
2016-06-24T11:53:05.943Z,7.35
2016-06-24T11:54:06.086Z,7.05
2016-06-24T11:55:06.144Z,7.24
2016-06-24T11:56:06.243Z,7.54
2016-06-24T11:57:06.287Z,6.84
2016-06-24T11:58:06.270Z,6.83
2016-06-24T11:59:06.413Z,7.53
2016-06-24T12:00:06.417Z,7.42
2016-06-24T12:01:06.550Z,7.42
2016-06-24T12:02:06.727Z,7.72
2016-06-24T12:03:06.657Z,7.82
2016-06-24T12:04:06.670Z,7.53
2016-06-24T12:05:06.816Z,7.72
2016-06-24T12:06:06.803Z,7.52
2016-06-24T12:07:06.872Z,8.53
2016-06-24T12:08:07.002Z,9.23
2016-06-24T12:09:07.079Z,9.34
2016-06-24T12:10:07.070Z,9.85
2016-06-24T12:11:07.125Z,9.56
2016-06-24T12:12:07.282Z,9.36
2016-06-24T12:13:07.277Z,8.87
2016-06-24T12:14:07.442Z,8.58
2016-06-24T12:15:07.482Z,7.67
2016-06-24T12:16:07.540Z,7.37
2016-06-24T12:17:07.537Z,7.46
2016-06-24T12:18:07.628Z,7.17
2016-06-24T12:19:07.742Z,7.27
2016-06-24T12:20:07.811Z,7.27
2016-06-24T12:21:07.828Z,6.67
2016-06-24T12:22:07.858Z,5.95
2016-06-24T12:23:07.998Z,5.65
2016-06-24T12:24:07.998Z,6.04
2016-06-24T12:25:08.135Z,6.65
2016-06-24T12:26:08.201Z,6.95
2016-06-24T12:27:08.283Z,7.65
2016-06-24T12:28:08.276Z,7.96
2016-06-24T12:29:08.313Z,7.36
2016-06-24T12:30:08.473Z,7.17
2016-06-24T12:31:08.541Z,6.67
2016-06-24T12:32:08.519Z,6.46
2016-06-24T12:33:08.586Z,6.67
2016-06-24T12:34:08.653Z,6.46
2016-06-24T12:35:08.835Z,6.97
2016-06-24T12:36:09.022Z,6.47
2016-06-24T12:37:08.852Z,6.57
2016-06-24T12:38:09.005Z,6.77
2016-06-24T12:39:08.998Z,6.96
2016-06-24T12:40:09.051Z,7.06
2016-06-24T12:41:09.129Z,6.86
2016-06-24T12:42:09.290Z,7.26
2016-06-24T12:43:09.343Z,6.76
2016-06-24T12:44:09.397Z,7.48
2016-06-24T12:45:09.385Z,7.07
2016-06-24T12:46:09.528Z,6.68
2016-06-24T12:47:09.525Z,5.87
2016-06-24T12:48:09.586Z,6.07
2016-06-24T12:49:09.663Z,5.16
2016-06-24T12:50:09.796Z,5.77
2016-06-24T12:51:10.014Z,4.96
2016-06-24T12:52:09.938Z,5.76
2016-06-24T12:53:09.994Z,5.26
2016-06-24T12:54:10.078Z,5.55
2016-06-24T12:55:10.070Z,5.76
2016-06-24T12:56:10.198Z,5.65
2016-06-24T12:57:10.273Z,5.65
2016-06-24T12:58:10.247Z,5.45